createdAt,value
2023-05-16T00:00:15.947Z,98305.38
2023-05-16T00:02:44.009Z,98301.59
2023-05-16T00:05:14.619Z,98297.81
2023-05-16T00:07:44.398Z,98289.66
2023-05-16T00:10:12.472Z,98296.53
2023-05-16T00:12:40.381Z,98292.31
2023-05-16T00:15:10.381Z,98298.50
2023-05-16T00:17:38.528Z,98293.59
2023-05-16T00:20:11.168Z,98285.94
2023-05-16T00:22:39.129Z,98297.25
2023-05-16T00:25:08.767Z,98278.72
2023-05-16T00:27:36.823Z,98290.53
2023-05-16T00:30:05.451Z,98279.97
2023-05-16T00:32:33.896Z,98276.44
2023-05-16T00:35:02.575Z,98276.34
2023-05-16T00:37:30.520Z,98275.09
2023-05-16T00:39:58.370Z,98267.44
2023-05-16T00:42:27.235Z,98264.13
2023-05-16T00:44:55.070Z,98265.38
2023-05-16T00:47:22.929Z,98272.13
2023-05-16T00:49:50.940Z,98265.72
2023-05-16T00:52:18.915Z,98274.34
2023-05-16T00:54:47.216Z,98271.94
2023-05-16T00:57:16.319Z,98259.59
2023-05-16T00:59:46.756Z,98275.59
2023-05-16T01:02:14.976Z,98267.91
2023-05-16T01:04:48.336Z,98281.78
2023-05-16T01:07:16.318Z,98281.63
2023-05-16T01:09:44.241Z,98273.16
2023-05-16T01:12:21.743Z,98274.34
2023-05-16T01:15:05.076Z,98274.25
2023-05-16T01:17:49.260Z,98270.38
2023-05-16T01:20:29.253Z,98266.22
2023-05-16T01:23:09.225Z,98272.63
2023-05-16T01:25:52.478Z,98282.94
2023-05-16T01:28:20.565Z,98264.84
2023-05-16T01:30:48.409Z,98272.53
2023-05-16T01:33:16.247Z,98274.22
2023-05-16T01:35:53.385Z,98262.94
2023-05-16T01:38:45.584Z,98269.88
2023-05-16T01:41:19.466Z,98275.94
2023-05-16T01:43:52.775Z,98261.84
2023-05-16T01:46:26.352Z,98272.88
2023-05-16T01:49:02.592Z,98272.63
2023-05-16T01:51:33.793Z,98281.56
2023-05-16T01:54:06.656Z,98274.13
2023-05-16T01:56:37.722Z,98269.34
2023-05-16T01:59:08.444Z,98268.63
2023-05-16T02:01:36.604Z,98275.28
2023-05-16T02:04:05.943Z,98276.19
2023-05-16T02:06:33.966Z,98288.19
2023-05-16T02:09:01.936Z,98284.97
2023-05-16T02:11:29.829Z,98283.63
2023-05-16T02:13:58.400Z,98281.19
2023-05-16T02:16:26.501Z,98283.84
2023-05-16T02:18:54.520Z,98286.59
2023-05-16T02:21:22.455Z,98294.25
2023-05-16T02:23:50.343Z,98290.38
2023-05-16T02:26:18.222Z,98285.31
2023-05-16T02:28:46.574Z,98272.75
2023-05-16T02:31:14.509Z,98286.47
2023-05-16T02:33:42.772Z,98284.66
2023-05-16T02:36:11.140Z,98268.97
2023-05-16T02:38:39.207Z,98259.25
2023-05-16T02:41:07.073Z,98269.28
2023-05-16T02:43:35.050Z,98273.22
2023-05-16T02:46:30.954Z,98271.91
2023-05-16T02:48:59.746Z,98268.16
2023-05-16T02:51:28.966Z,98275.47
2023-05-16T02:53:57.297Z,98268.38
2023-05-16T02:56:26.263Z,98284.38
2023-05-16T02:58:54.891Z,98275.81
2023-05-16T03:01:23.157Z,98262.31
2023-05-16T03:03:51.265Z,98266.56
2023-05-16T03:06:19.469Z,98270.09
2023-05-16T03:08:47.350Z,98260.38
2023-05-16T03:11:17.423Z,98269.44
2023-05-16T03:13:45.302Z,98253.50
2023-05-16T03:16:13.283Z,98257.59
2023-05-16T03:18:41.432Z,98249.94
2023-05-16T03:21:09.636Z,98241.38
2023-05-16T03:23:38.171Z,98254.28
2023-05-16T03:26:06.419Z,98259.06
2023-05-16T03:28:34.453Z,98245.25
2023-05-16T03:31:02.606Z,98255.34
2023-05-16T03:33:30.578Z,98253.41
2023-05-16T03:35:58.517Z,98250.97
2023-05-16T03:38:26.437Z,98256.91
2023-05-16T03:40:54.331Z,98238.72
2023-05-16T03:43:22.422Z,98241.03
2023-05-16T03:45:50.509Z,98235.88
2023-05-16T03:48:18.454Z,98232.31
2023-05-16T03:50:46.324Z,98229.13
2023-05-16T03:53:14.203Z,98233.94
2023-05-16T03:55:42.216Z,98248.59
2023-05-16T03:58:10.120Z,98241.47
2023-05-16T04:00:38.289Z,98252.59
2023-05-16T04:03:06.317Z,98229.81
2023-05-16T04:05:35.047Z,98241.25
2023-05-16T04:08:03.086Z,98242.94
2023-05-16T04:10:32.548Z,98231.06
2023-05-16T04:13:00.502Z,98231.28
2023-05-16T04:15:28.644Z,98239.31
2023-05-16T04:17:56.916Z,98240.56
2023-05-16T04:20:24.964Z,98233.22
2023-05-16T04:22:53.359Z,98238.16
2023-05-16T04:25:21.266Z,98224.53
2023-05-16T04:27:49.115Z,98234.03
2023-05-16T04:30:17.537Z,98231.75
2023-05-16T04:32:45.476Z,98236.25
2023-05-16T04:35:13.748Z,98227.75
2023-05-16T04:37:41.905Z,98227.06
2023-05-16T04:40:10.070Z,98234.50
2023-05-16T04:42:38.184Z,98238.63
2023-05-16T04:45:06.859Z,98242.81
2023-05-16T04:47:34.730Z,98240.78
2023-05-16T04:50:03.396Z,98240.22
2023-05-16T04:52:31.289Z,98244.06
2023-05-16T04:55:00.520Z,98233.66
2023-05-16T04:57:28.463Z,98237.28
2023-05-16T04:59:56.357Z,98235.38
2023-05-16T05:02:24.569Z,98227.81
2023-05-16T05:04:52.593Z,98231.81
2023-05-16T05:07:20.761Z,98231.13
2023-05-16T05:09:48.867Z,98231.94
2023-05-16T05:12:16.998Z,98234.69
2023-05-16T05:14:44.876Z,98237.19
2023-05-16T05:17:12.773Z,98227.91
2023-05-16T05:19:40.771Z,98224.28
2023-05-16T05:22:08.908Z,98204.53
2023-05-16T05:24:36.973Z,98210.47
2023-05-16T05:27:05.584Z,98211.91
2023-05-16T05:29:33.926Z,98216.13
2023-05-16T05:32:01.969Z,98216.72
2023-05-16T05:34:30.810Z,98216.94
2023-05-16T05:36:58.822Z,98233.06
2023-05-16T05:39:26.717Z,98240.50
2023-05-16T05:41:54.689Z,98232.59
2023-05-16T05:44:22.771Z,98225.69
2023-05-16T05:46:51.313Z,98222.41
2023-05-16T05:49:19.464Z,98221.81
2023-05-16T05:51:47.516Z,98220.34
2023-05-16T05:54:15.692Z,98230.09
2023-05-16T05:56:43.830Z,98221.09
2023-05-16T05:59:12.097Z,98239.59
2023-05-16T06:01:40.210Z,98237.38
2023-05-16T06:04:08.133Z,98236.69
2023-05-16T06:06:36.462Z,98240.91
2023-05-16T06:09:04.333Z,98250.06
2023-05-16T06:11:32.334Z,98260.84
2023-05-16T06:14:00.225Z,98265.66
2023-05-16T06:16:28.222Z,98278.13
2023-05-16T06:18:56.235Z,98284.66
2023-05-16T06:21:24.373Z,98280.19
2023-05-16T06:23:52.305Z,98274.97
2023-05-16T06:26:20.486Z,98276.88
2023-05-16T06:28:48.578Z,98278.94
2023-05-16T06:31:16.551Z,98279.63
2023-05-16T06:33:44.957Z,98283.84
2023-05-16T06:36:12.813Z,98277.38
2023-05-16T06:38:40.768Z,98271.22
2023-05-16T06:41:08.843Z,98288.38
2023-05-16T06:43:36.786Z,98276.03
2023-05-16T06:46:04.920Z,98282.06
2023-05-16T06:48:32.892Z,98263.81
2023-05-16T06:51:00.945Z,98277.84
2023-05-16T06:53:29.552Z,98287.69
2023-05-16T06:55:57.483Z,98276.59
2023-05-16T06:58:25.598Z,98288.28
2023-05-16T07:00:53.783Z,98290.00
2023-05-16T07:03:22.170Z,98287.34
2023-05-16T07:05:52.905Z,98279.22
2023-05-16T07:08:20.844Z,98276.91
2023-05-16T07:10:48.789Z,98273.09
2023-05-16T07:13:16.707Z,98272.38
2023-05-16T07:15:44.608Z,98264.78
2023-05-16T07:18:12.570Z,98262.59
2023-05-16T07:20:41.009Z,98256.44
2023-05-16T07:23:08.902Z,98247.47
2023-05-16T07:25:36.889Z,98245.03
2023-05-16T07:28:04.922Z,98250.28
2023-05-16T07:30:32.844Z,98251.78
2023-05-16T07:33:00.910Z,98248.84
2023-05-16T07:35:29.453Z,98246.97
2023-05-16T07:37:57.789Z,98248.59
2023-05-16T07:40:28.439Z,98246.44
2023-05-16T07:42:56.434Z,98259.69
2023-05-16T07:45:24.538Z,98258.38
2023-05-16T07:47:52.552Z,98252.56
2023-05-16T07:50:21.006Z,98263.47
2023-05-16T07:52:48.926Z,98266.31
2023-05-16T07:55:16.932Z,98272.31
2023-05-16T07:57:45.006Z,98270.44
2023-05-16T08:00:13.467Z,98268.16
2023-05-16T08:02:41.804Z,98272.38
2023-05-16T08:05:10.281Z,98269.13
2023-05-16T08:07:38.224Z,98272.03
2023-05-16T08:10:06.719Z,98281.13
2023-05-16T08:12:34.673Z,98282.66
2023-05-16T08:15:03.627Z,98283.72
2023-05-16T08:17:31.822Z,98290.28
2023-05-16T08:20:01.997Z,98288.34
2023-05-16T08:22:30.015Z,98280.97
2023-05-16T08:24:57.981Z,98279.19
2023-05-16T08:27:29.533Z,98283.00
2023-05-16T08:29:57.449Z,98282.75
2023-05-16T08:32:25.653Z,98280.19
2023-05-16T08:34:53.633Z,98284.97
2023-05-16T08:37:21.530Z,98289.66
2023-05-16T08:39:49.460Z,98271.44
2023-05-16T08:42:17.688Z,98269.50
2023-05-16T08:44:45.638Z,98276.25
2023-05-16T08:47:19.034Z,98284.25
2023-05-16T08:49:51.949Z,98277.88
2023-05-16T08:52:21.558Z,98282.66
2023-05-16T08:55:05.734Z,98280.88
2023-05-16T08:57:38.915Z,98273.13
2023-05-16T09:00:11.808Z,98265.16
2023-05-16T09:02:41.691Z,98257.09
2023-05-16T09:05:12.732Z,98259.84
2023-05-16T09:07:41.820Z,98250.41
2023-05-16T09:10:10.667Z,98242.25
2023-05-16T09:12:40.952Z,98230.69
2023-05-16T09:15:10.963Z,98220.22
2023-05-16T09:17:45.155Z,98218.84
2023-05-16T09:20:16.212Z,98224.63
2023-05-16T09:23:10.452Z,98230.06
2023-05-16T09:25:40.556Z,98224.06
2023-05-16T09:28:11.666Z,98209.16
2023-05-16T09:30:39.665Z,98194.75
2023-05-16T09:33:08.104Z,98212.81
2023-05-16T09:35:44.939Z,98217.66
2023-05-16T09:38:16.838Z,98207.97
2023-05-16T09:40:45.754Z,98194.97
2023-05-16T09:43:17.282Z,98204.94
2023-05-16T09:45:48.001Z,98197.31
2023-05-16T09:48:17.208Z,98205.16
2023-05-16T09:50:53.195Z,98200.88
2023-05-16T09:53:29.393Z,98191.22
2023-05-16T09:56:04.878Z,98183.09
2023-05-16T09:58:35.065Z,98198.19
2023-05-16T10:01:03.832Z,98207.16
2023-05-16T10:03:35.027Z,98204.78
2023-05-16T10:06:05.872Z,98207.47
2023-05-16T10:08:38.559Z,98193.28
2023-05-16T10:11:06.935Z,98204.19
2023-05-16T10:13:36.546Z,98214.22
2023-05-16T10:16:12.794Z,98228.38
2023-05-16T10:18:42.418Z,98242.22
2023-05-16T10:21:15.280Z,98251.06
2023-05-16T10:23:44.388Z,98262.47
2023-05-16T10:26:14.848Z,98256.94
2023-05-16T10:28:43.084Z,98251.44
2023-05-16T10:31:11.743Z,98259.72
2023-05-16T10:33:40.232Z,98252.09
2023-05-16T10:36:10.074Z,98236.41
2023-05-16T10:38:39.020Z,98238.25
2023-05-16T10:41:07.820Z,98246.34
2023-05-16T10:43:36.866Z,98233.38
2023-05-16T10:46:07.756Z,98240.25
2023-05-16T10:48:38.852Z,98236.25
2023-05-16T10:51:38.304Z,98240.03
2023-05-16T10:54:11.323Z,98217.47
2023-05-16T10:56:39.567Z,98221.84
2023-05-16T10:59:24.922Z,98222.84
2023-05-16T11:01:55.441Z,98235.53
2023-05-16T11:04:23.418Z,98243.44
2023-05-16T11:06:53.524Z,98221.25
2023-05-16T11:09:28.121Z,98233.72
2023-05-16T11:11:59.586Z,98246.69
2023-05-16T11:14:29.466Z,98251.78
2023-05-16T11:17:11.979Z,98249.81
2023-05-16T11:19:48.294Z,98239.00
2023-05-16T11:22:19.207Z,98238.44
2023-05-16T11:25:05.819Z,98236.75
2023-05-16T11:27:36.317Z,98246.91
2023-05-16T11:30:07.373Z,98252.78
2023-05-16T11:32:37.997Z,98252.78
2023-05-16T11:35:09.023Z,98271.66
2023-05-16T11:37:37.865Z,98255.53
2023-05-16T11:40:08.646Z,98265.06
2023-05-16T11:42:50.548Z,98276.09
2023-05-16T11:45:22.394Z,98273.22
2023-05-16T11:47:50.694Z,98283.03
2023-05-16T11:50:20.826Z,98277.44
2023-05-16T11:52:53.848Z,98287.41
2023-05-16T11:55:41.135Z,98275.56
2023-05-16T11:58:10.494Z,98271.13
2023-05-16T12:00:48.175Z,98264.91
2023-05-16T12:03:16.445Z,98258.69
2023-05-16T12:05:55.109Z,98253.22
2023-05-16T12:08:24.597Z,98250.19
2023-05-16T12:10:53.750Z,98244.69
2023-05-16T12:13:24.041Z,98251.44
2023-05-16T12:15:55.463Z,98246.13
2023-05-16T12:18:25.106Z,98259.28
2023-05-16T12:20:53.700Z,98260.09
2023-05-16T12:23:21.629Z,98266.56
2023-05-16T12:25:50.028Z,98273.06
2023-05-16T12:28:17.924Z,98269.75
2023-05-16T12:30:48.065Z,98262.66
2023-05-16T12:33:17.148Z,98254.75
2023-05-16T12:35:47.324Z,98254.03
2023-05-16T12:38:17.500Z,98265.88
2023-05-16T12:40:48.482Z,98264.31
2023-05-16T12:43:19.330Z,98269.34
2023-05-16T12:45:52.988Z,98267.06
2023-05-16T12:48:21.738Z,98278.91
2023-05-16T12:50:49.764Z,98267.06
2023-05-16T12:53:19.144Z,98265.50
2023-05-16T12:55:47.140Z,98264.31
2023-05-16T12:58:15.155Z,98252.19
2023-05-16T13:00:43.321Z,98242.19
2023-05-16T13:03:12.388Z,98248.69
2023-05-16T13:05:41.104Z,98245.28
2023-05-16T13:08:09.351Z,98248.38
2023-05-16T13:10:37.315Z,98256.56
2023-05-16T13:13:05.373Z,98256.50
2023-05-16T13:15:33.398Z,98254.09
2023-05-16T13:18:03.480Z,98248.09
2023-05-16T13:20:31.467Z,98244.88
2023-05-16T13:22:59.390Z,98246.41
2023-05-16T13:25:27.796Z,98247.22
2023-05-16T13:27:55.794Z,98246.13
2023-05-16T13:30:24.718Z,98241.06
2023-05-16T13:32:52.849Z,98243.81
2023-05-16T13:35:21.918Z,98234.16
2023-05-16T13:37:50.071Z,98250.53
2023-05-16T13:40:17.949Z,98237.66
2023-05-16T13:42:45.849Z,98253.44
2023-05-16T13:45:13.820Z,98248.53
2023-05-16T13:47:41.833Z,98254.19
2023-05-16T13:50:10.515Z,98246.56
2023-05-16T13:52:38.817Z,98245.59
2023-05-16T13:55:08.015Z,98235.72
2023-05-16T13:57:36.252Z,98240.25
2023-05-16T14:02:44.445Z,98245.03
2023-05-16T14:05:12.548Z,98241.06
2023-05-16T14:07:41.141Z,98235.22
2023-05-16T14:10:09.578Z,98232.13
2023-05-16T14:12:38.127Z,98230.47
2023-05-16T14:15:07.161Z,98232.13
2023-05-16T14:17:35.300Z,98232.03
2023-05-16T14:20:06.052Z,98243.22
2023-05-16T14:22:34.022Z,98235.09
2023-05-16T14:25:01.974Z,98233.81
2023-05-16T14:27:29.879Z,98246.41
2023-05-16T14:29:58.901Z,98245.56
2023-05-16T14:32:27.215Z,98251.78
2023-05-16T14:34:55.297Z,98253.22
2023-05-16T14:37:23.227Z,98250.59
2023-05-16T14:39:52.937Z,98244.00
2023-05-16T14:42:21.511Z,98244.47
2023-05-16T14:44:49.738Z,98245.97
2023-05-16T14:47:17.835Z,98253.38
2023-05-16T14:49:45.838Z,98253.47
2023-05-16T14:52:14.061Z,98247.22
2023-05-16T14:54:41.973Z,98247.59
2023-05-16T14:57:09.885Z,98250.63
2023-05-16T14:59:37.843Z,98244.41
2023-05-16T15:02:06.580Z,98246.44
2023-05-16T15:04:34.678Z,98231.06
2023-05-16T15:07:02.630Z,98223.75
2023-05-16T15:09:31.279Z,98215.41
2023-05-16T15:11:59.193Z,98214.53
2023-05-16T15:14:27.282Z,98209.25
2023-05-16T15:16:55.222Z,98219.13
2023-05-16T15:19:23.355Z,98217.88
2023-05-16T15:21:51.378Z,98217.44
2023-05-16T15:24:19.287Z,98215.66
2023-05-16T15:26:47.425Z,98226.84
2023-05-16T15:29:15.398Z,98225.28
2023-05-16T15:31:43.370Z,98230.19
2023-05-16T15:34:12.133Z,98242.25
2023-05-16T15:36:40.064Z,98236.66
2023-05-16T15:39:08.053Z,98239.97
2023-05-16T15:41:50.683Z,98237.66
2023-05-16T15:44:24.895Z,98235.16
2023-05-16T15:46:52.788Z,98232.78
2023-05-16T15:49:21.441Z,98239.59
2023-05-16T15:51:51.001Z,98237.75
2023-05-16T15:54:19.021Z,98228.72
2023-05-16T15:56:47.356Z,98232.16
2023-05-16T15:59:15.610Z,98237.84
2023-05-16T16:01:44.098Z,98240.34
2023-05-16T16:04:12.200Z,98243.53
2023-05-16T16:06:40.132Z,98240.06
2023-05-16T16:09:08.240Z,98245.09
2023-05-16T16:11:36.503Z,98258.88
2023-05-16T16:14:04.620Z,98251.69
2023-05-16T16:16:32.786Z,98254.19
2023-05-16T16:19:00.823Z,98256.59
2023-05-16T16:21:29.072Z,98243.53
2023-05-16T16:23:57.119Z,98251.09
2023-05-16T16:26:25.794Z,98246.28
2023-05-16T16:28:53.715Z,98246.72
2023-05-16T16:31:21.723Z,98244.59
2023-05-16T16:33:49.655Z,98235.81
2023-05-16T16:36:18.133Z,98244.66
2023-05-16T16:38:46.091Z,98240.50
2023-05-16T16:41:17.368Z,98240.13
2023-05-16T16:43:45.360Z,98233.31
2023-05-16T16:46:13.539Z,98239.31
2023-05-16T16:48:41.489Z,98242.19
2023-05-16T16:51:09.407Z,98243.75
2023-05-16T16:53:38.026Z,98245.56
2023-05-16T16:56:06.439Z,98252.94
2023-05-16T16:58:34.370Z,98247.97
2023-05-16T17:01:02.473Z,98248.41
2023-05-16T17:03:30.420Z,98251.97
2023-05-16T17:05:58.880Z,98255.06
2023-05-16T17:08:27.327Z,98253.09
2023-05-16T17:10:55.253Z,98258.19
2023-05-16T17:13:23.487Z,98257.47
2023-05-16T17:15:52.173Z,98256.22
2023-05-16T17:18:21.538Z,98262.44
2023-05-16T17:20:49.523Z,98267.97
2023-05-16T17:23:17.390Z,98265.94
2023-05-16T17:25:45.643Z,98267.78
2023-05-16T17:28:13.992Z,98271.44
2023-05-16T17:30:41.904Z,98270.66
2023-05-16T17:33:09.958Z,98268.22
2023-05-16T17:35:38.010Z,98259.28
2023-05-16T17:38:05.907Z,98257.84
2023-05-16T17:40:33.870Z,98271.28
2023-05-16T17:43:01.725Z,98267.09
2023-05-16T17:45:29.937Z,98272.34
2023-05-16T17:47:58.209Z,98288.44
2023-05-16T17:50:26.217Z,98284.88
2023-05-16T17:52:54.096Z,98280.44
2023-05-16T17:55:23.279Z,98271.72
2023-05-16T17:57:51.348Z,98298.91
2023-05-16T18:00:19.513Z,98289.84
2023-05-16T18:02:47.503Z,98305.31
2023-05-16T18:05:16.559Z,98283.38
2023-05-16T18:07:44.545Z,98287.97
2023-05-16T18:10:13.562Z,98289.31
2023-05-16T18:12:44.293Z,98304.41
2023-05-16T18:15:12.700Z,98297.16
2023-05-16T18:17:40.725Z,98309.84
2023-05-16T18:20:12.120Z,98304.06
2023-05-16T18:22:41.178Z,98305.66
2023-05-16T18:25:10.597Z,98302.72
2023-05-16T18:27:38.595Z,98307.25
2023-05-16T18:30:07.244Z,98315.88
2023-05-16T18:32:36.618Z,98315.88
2023-05-16T18:35:04.971Z,98307.72
2023-05-16T18:37:33.092Z,98315.78
2023-05-16T18:40:01.480Z,98322.69
2023-05-16T18:42:29.901Z,98317.19
2023-05-16T18:44:57.874Z,98317.28
2023-05-16T18:47:26.167Z,98320.56
2023-05-16T18:49:54.385Z,98317.47
2023-05-16T18:52:22.366Z,98322.00
2023-05-16T18:54:50.729Z,98319.59
2023-05-16T18:57:18.664Z,98321.78
2023-05-16T18:59:47.006Z,98327.50
2023-05-16T19:02:14.916Z,98331.94
2023-05-16T19:04:42.959Z,98331.94
2023-05-16T19:07:14.287Z,98329.34
2023-05-16T19:09:42.689Z,98335.38
2023-05-16T19:12:10.862Z,98340.91
2023-05-16T19:14:39.061Z,98334.34
2023-05-16T19:17:07.319Z,98332.91
2023-05-16T19:19:35.335Z,98330.59
2023-05-16T19:22:03.648Z,98331.38
2023-05-16T19:24:31.674Z,98348.19
2023-05-16T19:26:59.689Z,98332.56
2023-05-16T19:29:27.627Z,98343.47
2023-05-16T19:31:55.991Z,98340.84
2023-05-16T19:34:26.553Z,98343.72
2023-05-16T19:36:54.796Z,98344.41
2023-05-16T19:39:22.740Z,98341.81
2023-05-16T19:41:52.297Z,98342.69
2023-05-16T19:44:20.521Z,98343.06
2023-05-16T19:46:48.555Z,98361.50
2023-05-16T19:49:18.898Z,98355.66
2023-05-16T19:51:48.309Z,98363.91
2023-05-16T19:54:16.426Z,98373.81
2023-05-16T19:56:44.330Z,98365.88
2023-05-16T19:59:12.282Z,98368.50
2023-05-16T20:04:09.456Z,98370.38
2023-05-16T20:06:37.710Z,98382.03
2023-05-16T20:09:06.234Z,98361.81
2023-05-16T20:11:34.335Z,98371.50
2023-05-16T20:14:02.271Z,98369.69
2023-05-16T20:16:30.342Z,98382.28
2023-05-16T20:18:58.334Z,98388.13
2023-05-16T20:21:26.333Z,98371.72
2023-05-16T20:23:54.201Z,98381.66
2023-05-16T20:26:22.423Z,98378.84
2023-05-16T20:28:50.332Z,98384.44
2023-05-16T20:31:18.278Z,98378.91
2023-05-16T20:33:46.964Z,98379.84
2023-05-16T20:36:14.990Z,98372.75
2023-05-16T20:38:42.914Z,98382.13
2023-05-16T20:41:11.012Z,98364.88
2023-05-16T20:43:38.915Z,98387.78
2023-05-16T20:46:06.911Z,98380.22
2023-05-16T20:48:34.922Z,98382.44
2023-05-16T20:51:02.932Z,98396.88
2023-05-16T20:53:30.921Z,98401.38
2023-05-16T20:55:58.802Z,98400.16
2023-05-16T20:58:26.767Z,98397.09
2023-05-16T21:00:54.711Z,98399.69
2023-05-16T21:03:22.590Z,98396.72
2023-05-16T21:05:50.566Z,98401.97
2023-05-16T21:08:18.613Z,98409.22
2023-05-16T21:10:46.637Z,98412.50
2023-05-16T21:13:14.633Z,98417.25
2023-05-16T21:15:42.516Z,98412.31
2023-05-16T21:18:10.494Z,98424.09
2023-05-16T21:20:38.506Z,98422.50
2023-05-16T21:23:06.371Z,98424.38
2023-05-16T21:25:34.304Z,98423.56
2023-05-16T21:28:02.392Z,98425.19
2023-05-16T21:30:30.305Z,98429.06
2023-05-16T21:32:58.333Z,98431.94
2023-05-16T21:35:26.845Z,98435.22
2023-05-16T21:37:54.848Z,98431.22
2023-05-16T21:40:25.130Z,98436.41
2023-05-16T21:42:53.384Z,98430.31
2023-05-16T21:45:21.702Z,98435.47
2023-05-16T21:47:49.837Z,98440.28
2023-05-16T21:50:18.372Z,98455.75
2023-05-16T21:52:46.355Z,98444.66
2023-05-16T21:55:14.385Z,98443.88
2023-05-16T21:57:42.516Z,98447.28
2023-05-16T22:00:11.095Z,98444.75
2023-05-16T22:02:40.622Z,98454.16
2023-05-16T22:05:09.691Z,98457.03
2023-05-16T22:07:37.904Z,98458.84
2023-05-16T22:10:07.390Z,98454.97
2023-05-16T22:12:35.701Z,98452.22
2023-05-16T22:15:04.694Z,98451.44
2023-05-16T22:17:33.301Z,98446.72
2023-05-16T22:20:02.299Z,98457.47
2023-05-16T22:22:30.229Z,98460.59
2023-05-16T22:24:58.114Z,98461.25
2023-05-16T22:27:26.029Z,98469.97
2023-05-16T22:29:53.899Z,98467.34
2023-05-16T22:32:22.354Z,98470.66
2023-05-16T22:34:50.207Z,98452.78
2023-05-16T22:37:18.124Z,98464.78
2023-05-16T22:39:46.145Z,98476.00
2023-05-16T22:42:14.047Z,98489.41
2023-05-16T22:44:41.973Z,98492.50
2023-05-16T22:47:09.831Z,98500.91
2023-05-16T22:49:37.687Z,98491.81
2023-05-16T22:52:05.895Z,98492.75
2023-05-16T22:54:33.794Z,98499.84
2023-05-16T22:57:01.684Z,98505.66
2023-05-16T22:59:29.740Z,98511.94
2023-05-16T23:01:57.846Z,98500.72
2023-05-16T23:04:26.025Z,98505.75
2023-05-16T23:06:54.047Z,98499.81
2023-05-16T23:09:21.896Z,98508.31
2023-05-16T23:11:49.804Z,98506.69
2023-05-16T23:14:17.716Z,98509.31
2023-05-16T23:16:45.647Z,98517.72
2023-05-16T23:19:13.702Z,98513.94
2023-05-16T23:21:41.622Z,98513.91
2023-05-16T23:24:09.502Z,98515.28
2023-05-16T23:26:37.673Z,98519.81
2023-05-16T23:29:06.217Z,98519.16
2023-05-16T23:31:34.078Z,98524.69
2023-05-16T23:34:02.133Z,98526.75
2023-05-16T23:36:30.134Z,98515.06
2023-05-16T23:38:58.070Z,98528.91
2023-05-16T23:41:25.957Z,98529.16
2023-05-16T23:43:53.930Z,98539.09
2023-05-16T23:46:22.213Z,98527.13
2023-05-16T23:48:50.372Z,98527.84
2023-05-16T23:51:18.505Z,98536.78
2023-05-16T23:53:46.423Z,98528.66
2023-05-16T23:56:14.332Z,98525.34
2023-05-16T23:58:42.468Z,98530.03
